Time;durP1;ratioP1;P1;durP2;ratioP2;P2;SDS_P1;SDS_P2;PMS_P1;PMS_P2;Temp;Humidity;BMP_temperature;BMP_pressure;BME280_temperature;BME280_humidity;BME280_pressure;Samples;Min_cycle;Max_cycle;Signal;HPM_P1;HPM_P2
2021/05/06 00:07:05;;;;;;;3.97;1.83;;;;;;;7.63;62.14;96251.94;5031650;28;20446;-68
2021/05/06 00:32:37;;;;;;;3.23;2.40;;;;;;;7.49;63.46;96232.50;5046288;28;20419;-68
2021/05/06 00:35:04;;;;;;;3.17;2.80;;;;;;;7.76;62.92;96226.25;5034277;28;20442;-68
2021/05/06 00:37:33;;;;;;;4.50;2.03;;;;;;;8.02;61.94;96222.72;5033818;28;20831;-68
2021/05/06 00:40:06;;;;;;;4.00;2.60;;;;;;;7.92;62.55;96217.63;5032123;28;20418;-66
2021/05/06 00:45:37;;;;;;;2.70;2.50;;;;;;;7.62;63.00;96213.81;5023352;28;20443;-67
2021/05/06 00:56:37;;;;;;;2.50;2.30;;;;;;;7.96;62.05;96210.28;5037692;28;20446;-67
2021/05/06 01:04:11;;;;;;;5.17;3.70;;;;;;;7.92;62.86;96203.78;5030164;28;20418;-67
2021/05/06 01:06:49;;;;;;;4.23;2.10;;;;;;;7.66;62.96;96204.69;5031371;28;20430;-67
2021/05/06 01:09:17;;;;;;;2.57;2.30;;;;;;;7.83;62.83;96211.56;5031725;28;20458;-67
2021/05/06 01:11:53;;;;;;;2.33;2.13;;;;;;;7.29;63.72;96208.47;5031474;28;20426;-67
2021/05/06 01:14:19;;;;;;;3.57;2.63;;;;;;;7.46;64.04;96199.72;5031762;28;20537;-68
2021/05/06 01:16:44;;;;;;;2.20;1.97;;;;;;;7.19;64.54;96198.16;5031400;28;21016;-67
2021/05/06 01:19:10;;;;;;;3.27;2.20;;;;;;;7.22;64.74;96203.06;5031640;28;20262;-66
2021/05/06 01:21:35;;;;;;;2.43;1.97;;;;;;;7.21;64.52;96217.84;5031198;28;20252;-66
2021/05/06 01:24:01;;;;;;;2.47;2.20;;;;;;;7.05;64.72;96202.97;5030682;28;20184;-66
2021/05/06 01:28:59;;;;;;;4.80;2.30;;;;;;;7.26;63.56;96204.34;5033582;28;20425;-67
2021/05/06 01:31:27;;;;;;;5.53;2.20;;;;;;;7.20;63.46;96205.00;5031332;28;20426;-68
2021/05/06 01:34:07;;;;;;;4.63;2.17;;;;;;;7.66;63.13;96204.69;5031689;28;20509;-67
2021/05/06 01:36:50;;;;;;;5.83;2.30;;;;;;;7.47;63.07;96206.56;5045071;28;20422;-67
2021/05/06 01:47:25;;;;;;;5.27;2.40;;;;;;;7.17;63.91;96213.94;5032517;28;20488;-67
2021/05/06 01:50:09;;;;;;;3.20;2.20;;;;;;;7.30;63.08;96208.28;5031390;28;20997;-68
2021/05/06 02:00:37;;;;;;;4.70;2.60;;;;;;;7.26;62.96;96193.94;5030084;28;20423;-68
2021/05/06 02:03:03;;;;;;;5.07;2.47;;;;;;;7.47;63.02;96193.53;5030998;28;20430;-69
2021/05/06 02:05:29;;;;;;;9.13;3.43;;;;;;;7.60;62.95;96189.66;5030483;28;20450;-66
2021/05/06 02:07:55;;;;;;;6.57;2.60;;;;;;;7.75;61.70;96182.88;5032506;28;20541;-67
2021/05/06 02:10:24;;;;;;;5.53;2.60;;;;;;;7.37;62.83;96192.84;5031071;28;20187;-67
2021/05/06 02:12:49;;;;;;;6.03;2.50;;;;;;;7.71;61.84;96180.75;5030705;28;20191;-69
2021/05/06 02:15:31;;;;;;;3.43;2.60;;;;;;;8.03;60.21;96195.66;5031414;28;20446;-66
2021/05/06 02:17:57;;;;;;;5.47;3.00;;;;;;;7.94;60.44;96187.00;5030652;28;20207;-67
2021/05/06 02:20:22;;;;;;;4.53;2.30;;;;;;;8.10;60.17;96186.19;5029313;28;20438;-68
2021/05/06 02:22:50;;;;;;;2.57;2.13;;;;;;;8.08;59.98;96177.69;5030063;28;20438;-68
2021/05/06 02:25:16;;;;;;;4.80;2.50;;;;;;;8.26;59.39;96166.31;5029860;28;20199;-67
2021/05/06 02:27:42;;;;;;;4.20;2.57;;;;;;;8.22;59.62;96162.38;5030764;28;20962;-67
2021/05/06 02:30:09;;;;;;;6.20;2.60;;;;;;;8.16;59.68;96169.06;5030592;28;20188;-66
2021/05/06 02:32:35;;;;;;;3.13;2.47;;;;;;;8.12;59.63;96163.34;5030988;28;20191;-66
2021/05/06 02:35:01;;;;;;;4.70;2.77;;;;;;;8.18;59.36;96161.09;5029846;28;20957;-66
2021/05/06 02:37:27;;;;;;;3.60;2.50;;;;;;;8.12;59.15;96170.38;5031021;28;20220;-66
2021/05/06 02:39:53;;;;;;;6.60;2.63;;;;;;;8.36;58.72;96173.97;5030011;28;20734;-67
2021/05/06 02:42:19;;;;;;;3.63;2.80;;;;;;;8.37;59.05;96171.19;5031705;28;20438;-66
2021/05/06 02:44:45;;;;;;;4.50;2.67;;;;;;;8.28;59.10;96172.19;5032751;28;20453;-67
2021/05/06 02:47:11;;;;;;;11.50;2.53;;;;;;;8.12;59.34;96162.56;5034690;28;20944;-67
2021/05/06 02:49:37;;;;;;;3.07;2.73;;;;;;;8.16;60.28;96169.06;5034526;28;20282;-68
2021/05/06 02:52:10;;;;;;;3.20;2.57;;;;;;;8.30;59.47;96172.84;5018062;28;20267;-67
2021/05/06 02:54:40;;;;;;;5.20;2.63;;;;;;;8.29;59.48;96173.81;5034239;28;20462;-68
2021/05/06 03:02:42;;;;;;;3.90;2.70;;;;;;;7.58;61.91;96166.38;5048214;28;20429;-68
2021/05/06 03:05:01;;;;;;;5.80;2.30;;;;;;;7.59;62.65;96167.16;5025998;28;20438;-67
2021/05/06 03:07:29;;;;;;;7.57;2.90;;;;;;;7.67;62.44;96170.63;5032833;28;20509;-68
2021/05/06 03:10:06;;;;;;;7.67;2.93;;;;;;;7.77;62.11;96170.50;5033622;28;20665;-68
2021/05/06 03:12:47;;;;;;;4.10;2.40;;;;;;;7.53;63.71;96168.63;5033781;28;20422;-68
2021/05/06 03:23:25;;;;;;;4.90;3.17;;;;;;;6.05;70.10;96184.19;5032643;28;20449;-68
2021/05/06 03:25:51;;;;;;;6.40;3.47;;;;;;;6.58;68.96;96172.09;5033227;28;20446;-69
2021/05/06 03:28:30;;;;;;;5.80;3.07;;;;;;;6.53;70.00;96154.31;5033625;28;20666;-68
2021/05/06 03:45:35;;;;;;;3.50;2.40;;;;;;;6.97;68.24;96111.75;4971837;28;20457;-67
2021/05/06 04:37:56;;;;;;;7.67;3.97;;;;;;;7.52;67.62;96078.34;5031413;28;21186;-68
2021/05/06 04:45:59;;;;;;;7.57;4.57;;;;;;;7.54;68.43;96073.78;5048306;28;20513;-69
2021/05/06 05:04:32;;;;;;;4.93;3.30;;;;;;;8.08;66.67;96075.94;5046695;28;20470;-69
2021/05/06 05:07:12;;;;;;;7.50;3.73;;;;;;;8.16;66.94;96069.88;5039745;28;20417;-67
2021/05/06 05:17:44;;;;;;;9.40;3.53;;;;;;;8.31;66.15;96064.81;5034460;28;20485;-68
2021/05/06 05:20:18;;;;;;;6.63;3.37;;;;;;;8.31;65.91;96064.81;5026186;28;20399;-68
2021/05/06 05:25:37;;;;;;;3.47;3.13;;;;;;;8.51;65.32;96054.03;5031654;28;20935;-68
2021/05/06 05:28:04;;;;;;;4.50;3.13;;;;;;;8.54;64.98;96057.13;5024783;28;20407;-68
2021/05/06 05:30:32;;;;;;;10.63;5.00;;;;;;;8.62;64.80;96051.06;5030707;28;20423;-68
2021/05/06 05:32:58;;;;;;;5.23;3.27;;;;;;;8.49;65.40;96054.22;5029754;28;20625;-68
2021/05/06 05:38:08;;;;;;;10.63;3.17;;;;;;;8.56;65.02;96046.53;5031427;28;20453;-67
2021/05/06 05:40:42;;;;;;;7.00;3.00;;;;;;;8.45;64.48;96048.47;5031254;28;20932;-68
2021/05/06 05:43:56;;;;;;;3.47;3.00;;;;;;;8.28;65.64;96041.66;5030160;28;20422;-70
2021/05/06 05:46:36;;;;;;;5.73;3.30;;;;;;;8.44;64.56;96040.81;5021413;28;20450;-68
2021/05/06 05:56:41;;;;;;;6.03;3.30;;;;;;;8.53;65.00;96044.25;5031203;28;20429;-67
2021/05/06 05:59:07;;;;;;;5.03;3.30;;;;;;;8.82;63.40;96038.41;5030306;28;20549;-68
2021/05/06 06:01:33;;;;;;;6.10;3.00;;;;;;;8.46;64.47;96044.88;5030621;28;20188;-69
2021/05/06 06:03:58;;;;;;;4.23;3.20;;;;;;;8.60;64.71;96038.19;5030017;28;20925;-69
2021/05/06 06:06:24;;;;;;;5.87;3.20;;;;;;;8.83;63.60;96039.22;5031631;28;20184;-68
2021/05/06 06:08:50;;;;;;;4.87;3.33;;;;;;;8.85;63.44;96038.09;5030948;28;20265;-67
2021/05/06 06:11:16;;;;;;;6.20;2.90;;;;;;;8.97;63.08;96040.31;5011721;28;20422;-67
2021/05/06 06:13:43;;;;;;;6.40;2.60;;;;;;;8.94;63.02;96043.28;5033923;28;20218;-68
2021/05/06 06:21:13;;;;;;;8.17;3.17;;;;;;;9.09;62.34;96052.03;5034662;28;20183;-68
2021/05/06 06:23:38;;;;;;;5.10;2.60;;;;;;;8.83;63.21;96047.91;5033006;28;20198;-69
2021/05/06 06:26:04;;;;;;;5.60;2.97;;;;;;;9.15;62.18;96042.69;5034525;28;20438;-67
2021/05/06 06:28:41;;;;;;;3.70;2.43;;;;;;;9.02;62.18;96046.66;5032364;28;20183;-67
2021/05/06 06:31:22;;;;;;;6.57;2.73;;;;;;;8.24;64.97;96040.34;5027412;28;20602;-66
2021/05/06 06:33:48;;;;;;;7.10;2.83;;;;;;;8.86;62.43;96029.28;5034673;28;20990;-69
2021/05/06 06:36:14;;;;;;;6.57;2.80;;;;;;;8.92;60.93;96033.00;5034604;28;20464;-67
2021/05/06 06:38:39;;;;;;;4.50;2.30;;;;;;;9.19;61.03;96023.88;5034703;28;20458;-67
2021/05/06 06:41:08;;;;;;;9.00;2.53;;;;;;;9.13;61.11;96021.13;5033476;28;20626;-67
2021/05/06 06:43:38;;;;;;;3.90;2.40;;;;;;;9.24;60.88;96018.13;5034353;28;20198;-68
2021/05/06 06:46:05;;;;;;;10.23;3.70;;;;;;;9.19;60.63;96010.00;5032889;28;20525;-68
2021/05/06 06:48:31;;;;;;;5.60;2.60;;;;;;;9.41;60.38;96015.41;5034204;28;20429;-68
2021/05/06 06:50:56;;;;;;;6.20;2.90;;;;;;;9.50;60.38;96017.78;5049344;28;20882;-68
2021/05/06 06:53:22;;;;;;;6.17;2.50;;;;;;;9.65;59.99;96010.00;5034661;28;20431;-67
2021/05/06 06:55:48;;;;;;;7.73;4.00;;;;;;;9.81;59.39;96010.84;5033094;28;20203;-67
2021/05/06 06:58:16;;;;;;;7.53;2.80;;;;;;;9.62;60.28;96020.81;5034883;28;20203;-67
2021/05/06 07:00:45;;;;;;;8.00;2.70;;;;;;;9.65;59.93;96017.84;5032943;28;20425;-68
2021/05/06 07:03:12;;;;;;;5.77;3.60;;;;;;;9.34;60.78;96016.09;5033644;28;20425;-68
2021/05/06 07:05:38;;;;;;;8.37;3.10;;;;;;;9.51;59.55;96006.31;5034603;28;20957;-68
2021/05/06 07:08:34;;;;;;;8.37;3.40;;;;;;;9.73;59.21;96008.28;5033117;28;20992;-68
2021/05/06 07:11:02;;;;;;;4.40;3.00;;;;;;;9.76;59.32;96006.16;5025773;28;20422;-68
2021/05/06 07:13:28;;;;;;;5.93;3.63;;;;;;;10.05;58.50;96001.16;5031308;28;20434;-67
2021/05/06 07:16:00;;;;;;;7.63;3.33;;;;;;;10.01;59.26;95999.88;5026377;28;20490;-68
2021/05/06 07:18:26;;;;;;;5.07;2.70;;;;;;;9.84;59.17;96000.84;5029852;28;20588;-68
2021/05/06 07:20:52;;;;;;;5.90;2.90;;;;;;;10.38;57.67;95993.81;5034809;28;20430;-67
2021/05/06 07:23:19;;;;;;;8.93;3.07;;;;;;;10.22;57.25;95997.38;5043612;28;20434;-67
2021/05/06 07:25:50;;;;;;;5.73;2.63;;;;;;;9.98;58.62;95996.63;5033099;28;20207;-67
2021/05/06 07:28:20;;;;;;;3.73;2.50;;;;;;;10.39;57.09;96002.47;5034334;28;20465;-67
2021/05/06 07:30:48;;;;;;;5.43;2.87;;;;;;;9.93;57.81;96006.00;5033550;28;20492;-68
2021/05/06 07:33:15;;;;;;;6.80;3.00;;;;;;;10.23;57.47;96008.66;5034205;28;20449;-67
2021/05/06 07:35:41;;;;;;;4.27;2.50;;;;;;;10.12;58.10;96007.28;5032400;28;20454;-67
2021/05/06 07:38:07;;;;;;;3.83;2.30;;;;;;;10.12;57.33;96007.28;5031696;28;20458;-66
2021/05/06 07:40:34;;;;;;;3.37;2.43;;;;;;;10.59;56.38;96008.78;5033670;28;20930;-68
2021/05/06 07:43:01;;;;;;;3.83;2.50;;;;;;;11.00;54.51;96006.66;5023059;28;20422;-67
2021/05/06 07:45:27;;;;;;;9.00;3.13;;;;;;;10.76;55.66;95998.13;5033995;28;20450;-68
2021/05/06 07:47:53;;;;;;;4.53;2.47;;;;;;;10.57;55.54;95997.69;5033497;28;20426;-67
2021/05/06 07:50:19;;;;;;;8.90;3.37;;;;;;;10.50;55.16;95994.16;5033181;28;20426;-67
2021/05/06 07:52:47;;;;;;;4.60;2.30;;;;;;;10.72;55.76;95991.59;5033020;28;20426;-67
2021/05/06 07:55:13;;;;;;;5.30;3.30;;;;;;;10.78;55.00;95990.06;5037361;28;20454;-67
2021/05/06 07:57:39;;;;;;;6.27;3.00;;;;;;;11.37;53.76;95991.72;5032099;28;20458;-68
2021/05/06 08:00:07;;;;;;;6.20;2.30;;;;;;;11.65;52.31;95985.72;5035016;28;20202;-67
2021/05/06 08:02:33;;;;;;;9.67;2.90;;;;;;;11.28;52.25;95992.84;5033438;28;20427;-67
2021/05/06 08:04:59;;;;;;;7.40;2.60;;;;;;;10.95;54.08;95995.94;5037353;28;20495;-67
2021/05/06 08:07:25;;;;;;;8.53;2.60;;;;;;;11.01;53.01;95997.78;5034850;28;20278;-68
2021/05/06 08:09:50;;;;;;;7.83;2.80;;;;;;;10.73;53.60;95998.47;5033264;28;20521;-69
2021/05/06 08:12:18;;;;;;;6.17;2.63;;;;;;;10.76;53.43;96000.72;5033205;28;20214;-67
2021/05/06 08:14:43;;;;;;;2.90;2.37;;;;;;;10.77;52.79;96001.56;5032840;28;20207;-66
2021/05/06 08:17:09;;;;;;;7.80;3.03;;;;;;;11.04;52.77;95994.81;5033189;28;20454;-67
2021/05/06 08:19:35;;;;;;;8.77;2.53;;;;;;;10.83;52.93;95983.28;5031971;28;20678;-67
2021/05/06 08:22:01;;;;;;;7.03;2.97;;;;;;;11.40;52.27;95993.19;5032564;28;20270;-67
2021/05/06 08:24:26;;;;;;;7.17;3.10;;;;;;;11.43;51.92;95988.34;5034630;28;20204;-68
2021/05/06 08:26:52;;;;;;;4.47;2.63;;;;;;;11.55;51.41;95986.03;5033387;28;20556;-68
2021/05/06 08:29:17;;;;;;;16.33;3.63;;;;;;;11.31;52.36;95990.66;5033548;28;20187;-68
2021/05/06 08:31:43;;;;;;;10.13;3.20;;;;;;;11.17;52.65;95984.47;5031078;28;20561;-68
2021/05/06 08:34:09;;;;;;;8.10;3.60;;;;;;;11.40;52.29;95983.47;5049065;28;20203;-68
2021/05/06 08:36:34;;;;;;;6.63;4.70;;;;;;;11.41;52.60;95979.03;5033723;28;20253;-67
2021/05/06 08:39:00;;;;;;;6.10;4.10;;;;;;;11.72;51.38;95970.81;5032137;28;20211;-67
2021/05/06 08:41:26;;;;;;;9.33;4.17;;;;;;;12.08;50.93;95974.34;5032025;28;20273;-67
2021/05/06 08:43:56;;;;;;;14.20;7.90;;;;;;;12.07;50.73;95973.56;5040627;28;20259;-67
2021/05/06 08:46:22;;;;;;;8.43;3.60;;;;;;;12.50;49.90;95971.78;5032697;28;20176;-69
2021/05/06 08:48:48;;;;;;;10.87;3.87;;;;;;;12.34;50.15;95965.84;5048560;28;20953;-67
2021/05/06 08:51:14;;;;;;;5.80;2.83;;;;;;;12.11;50.12;95980.03;5031644;28;20274;-67
2021/05/06 08:53:42;;;;;;;13.23;3.20;;;;;;;12.04;50.37;95978.38;5014772;28;20190;-67
2021/05/06 08:56:08;;;;;;;15.43;5.43;;;;;;;11.78;51.62;95974.53;5032668;28;20454;-68
2021/05/06 08:58:33;;;;;;;9.33;3.43;;;;;;;12.24;50.58;95970.63;5031318;28;20450;-68
2021/05/06 09:00:59;;;;;;;6.67;3.43;;;;;;;12.29;50.53;95970.88;5032732;28;20179;-67
2021/05/06 09:03:24;;;;;;;7.60;3.10;;;;;;;12.30;50.20;95967.25;5032384;28;20191;-68
2021/05/06 09:06:23;;;;;;;7.73;3.10;;;;;;;11.60;51.45;95985.47;5032611;28;20748;-67
2021/05/06 09:08:53;;;;;;;7.53;3.90;;;;;;;12.16;51.13;95973.41;4975842;28;20212;-68
2021/05/06 09:11:31;;;;;;;9.63;4.10;;;;;;;12.19;51.26;95975.66;4991110;28;20515;-68
2021/05/06 09:14:02;;;;;;;15.03;4.07;;;;;;;12.28;50.63;95967.44;4972288;28;20429;-67
2021/05/06 09:16:39;;;;;;;7.93;3.53;;;;;;;11.94;51.37;95979.50;5002145;28;20420;-69
2021/05/06 09:19:06;;;;;;;6.50;3.40;;;;;;;11.98;51.84;95972.06;4999132;28;20464;-67
2021/05/06 09:21:34;;;;;;;5.97;3.30;;;;;;;12.10;51.75;95965.28;4975723;28;20813;-67
2021/05/06 09:24:06;;;;;;;9.30;3.90;;;;;;;12.03;52.20;95977.56;4967220;28;21418;-68
2021/05/06 09:26:32;;;;;;;34.17;22.60;;;;;;;12.15;52.50;95969.97;4976907;28;20979;-67
2021/05/06 09:28:58;;;;;;;7.53;4.00;;;;;;;12.00;53.46;95975.31;4980959;28;20430;-67
2021/05/06 09:31:24;;;;;;;11.60;3.20;;;;;;;11.77;53.69;95988.66;4981244;28;20262;-66
2021/05/06 09:33:52;;;;;;;10.00;6.67;;;;;;;12.05;53.95;95986.06;4999203;28;20197;-67
2021/05/06 09:36:24;;;;;;;7.50;3.60;;;;;;;11.97;53.55;95980.94;4976613;28;21005;-67
2021/05/06 09:38:54;;;;;;;9.23;4.40;;;;;;;11.93;53.75;95977.84;4996307;28;20486;-67
2021/05/06 09:41:26;;;;;;;9.67;4.47;;;;;;;12.05;53.51;95970.31;4961109;28;20444;-66
2021/05/06 09:43:52;;;;;;;9.40;4.33;;;;;;;12.36;53.73;95973.53;4996016;28;20442;-67
2021/05/06 09:46:29;;;;;;;7.63;3.00;;;;;;;11.67;54.18;95979.28;5032124;28;20438;-68
2021/05/06 09:49:07;;;;;;;8.07;3.70;;;;;;;12.13;54.24;95967.53;5032087;28;20536;-67
2021/05/06 09:51:37;;;;;;;10.37;4.50;;;;;;;12.19;54.28;95970.41;5033645;28;20434;-67
2021/05/06 09:54:05;;;;;;;6.60;3.33;;;;;;;12.30;54.01;95972.50;5028364;28;20418;-67
2021/05/06 09:56:31;;;;;;;9.90;3.60;;;;;;;12.36;53.76;95973.53;5017420;28;20924;-67
2021/05/06 09:58:57;;;;;;;12.30;4.50;;;;;;;12.38;54.50;95966.28;5039981;28;20978;-68
2021/05/06 10:01:31;;;;;;;6.70;3.40;;;;;;;12.09;54.24;95965.47;5018119;28;20501;-66
2021/05/06 10:04:11;;;;;;;9.20;3.30;;;;;;;12.37;54.84;95972.53;5051164;28;20203;-69
2021/05/06 10:06:36;;;;;;;8.50;3.20;;;;;;;12.25;54.91;95974.88;5050603;28;20468;-68
2021/05/06 10:09:03;;;;;;;8.07;3.40;;;;;;;11.86;56.28;95971.75;5036326;28;20434;-67
2021/05/06 10:11:28;;;;;;;9.50;3.93;;;;;;;11.95;57.11;95965.38;5033677;28;20635;-68
2021/05/06 10:13:54;;;;;;;9.03;3.10;;;;;;;11.78;58.03;95977.97;5036892;28;20441;-67
2021/05/06 10:16:20;;;;;;;9.80;3.67;;;;;;;11.83;58.58;95967.72;5034927;28;20669;-67
2021/05/06 10:18:46;;;;;;;6.93;3.40;;;;;;;11.68;58.76;95972.22;5035817;28;20462;-67
2021/05/06 10:21:13;;;;;;;9.70;2.83;;;;;;;11.74;58.66;95968.03;5033118;28;20271;-67
2021/05/06 10:23:39;;;;;;;5.97;3.33;;;;;;;11.50;59.74;95955.13;5034948;28;20214;-67
2021/05/06 10:26:05;;;;;;;6.17;3.30;;;;;;;11.26;60.31;95966.00;5033315;28;20438;-68
2021/05/06 10:28:34;;;;;;;9.57;3.50;;;;;;;11.19;60.68;95964.13;5035782;28;20443;-68
2021/05/06 10:31:07;;;;;;;8.80;3.90;;;;;;;11.20;61.20;95963.13;5033275;28;20206;-68
2021/05/06 10:33:36;;;;;;;5.67;3.10;;;;;;;11.50;60.88;95952.50;5033362;28;20431;-68
2021/05/06 10:36:04;;;;;;;9.40;3.70;;;;;;;11.63;59.29;95950.97;5031854;28;20445;-67
2021/05/06 10:38:38;;;;;;;9.57;3.63;;;;;;;11.53;60.20;95953.91;5032764;28;20450;-68
2021/05/06 10:41:22;;;;;;;6.73;2.87;;;;;;;11.58;59.72;95945.50;5033990;28;20956;-67
2021/05/06 10:43:55;;;;;;;9.43;3.83;;;;;;;11.54;59.47;95945.03;5033875;28;20429;-66
2021/05/06 10:46:22;;;;;;;7.70;3.53;;;;;;;11.84;58.60;95943.06;5034157;28;20470;-66
2021/05/06 10:48:54;;;;;;;4.77;2.87;;;;;;;11.46;58.37;95940.78;5016215;28;20449;-67
2021/05/06 10:51:32;;;;;;;7.03;2.50;;;;;;;11.59;58.25;95926.13;5033448;28;20610;-68
2021/05/06 10:53:58;;;;;;;4.13;2.50;;;;;;;11.50;58.28;95931.50;5032217;28;20414;-67
2021/05/06 10:56:38;;;;;;;5.80;2.20;;;;;;;11.27;59.24;95933.53;5048932;28;20431;-68
2021/05/06 10:59:22;;;;;;;4.50;2.67;;;;;;;11.21;59.19;95922.78;5033649;28;21024;-68
2021/05/06 11:01:47;;;;;;;3.20;2.70;;;;;;;11.42;58.91;95917.69;5032247;28;20422;-67
2021/05/06 11:04:13;;;;;;;4.47;2.87;;;;;;;11.67;58.52;95920.75;5032862;28;20430;-67
2021/05/06 11:06:40;;;;;;;8.40;3.97;;;;;;;11.78;58.33;95909.72;5049657;28;20552;-66
2021/05/06 11:09:37;;;;;;;5.97;4.00;;;;;;;11.82;58.53;95913.59;5033550;28;20267;-67
2021/05/06 11:12:15;;;;;;;4.57;3.30;;;;;;;11.71;58.80;95905.41;5020320;28;20437;-66
2021/05/06 11:15:07;;;;;;;8.63;3.90;;;;;;;11.64;58.97;95900.13;5035750;28;20449;-69
2021/05/06 11:17:33;;;;;;;9.47;2.53;;;;;;;11.98;57.41;95894.13;5017917;28;20434;-66
2021/05/06 11:19:59;;;;;;;3.50;2.20;;;;;;;12.41;56.54;95898.38;5033197;28;20423;-65
2021/05/06 11:22:43;;;;;;;7.03;2.50;;;;;;;11.78;58.31;95893.16;5033672;28;20188;-67
2021/05/06 11:25:40;;;;;;;5.23;2.43;;;;;;;12.43;55.78;95887.66;5034830;28;21101;-68
2021/05/06 11:28:15;;;;;;;5.43;2.00;;;;;;;11.71;57.63;95880.00;5035701;28;20425;-68
2021/05/06 11:30:44;;;;;;;2.97;1.60;;;;;;;11.40;57.49;95896.13;5037476;28;20576;-67
2021/05/06 11:33:15;;;;;;;2.70;1.70;;;;;;;11.86;54.97;95879.06;5032528;28;20510;-67
2021/05/06 11:36:07;;;;;;;2.40;1.80;;;;;;;12.22;53.52;95868.38;5033596;28;20596;-67
2021/05/06 11:38:39;;;;;;;2.80;1.43;;;;;;;12.23;54.08;95861.31;5033450;28;20454;-68
2021/05/06 11:41:23;;;;;;;2.40;1.37;;;;;;;12.18;53.44;95859.28;5025658;28;20840;-68
2021/05/06 11:43:55;;;;;;;3.13;1.00;;;;;;;12.62;51.28;95849.31;5033945;28;20476;-67
2021/05/06 11:46:23;;;;;;;2.60;1.70;;;;;;;11.83;53.15;95848.78;5034260;28;20516;-67
2021/05/06 11:48:55;;;;;;;1.30;1.20;;;;;;;11.49;54.07;95845.94;5034264;28;20427;-68
2021/05/06 11:51:30;;;;;;;1.77;1.20;;;;;;;11.98;52.36;95840.78;5032422;28;20531;-68
2021/05/06 11:54:14;;;;;;;1.60;1.20;;;;;;;11.66;52.86;95835.16;5049181;28;20913;-67
2021/05/06 11:56:41;;;;;;;1.47;1.20;;;;;;;11.70;52.64;95841.63;5033642;28;20430;-67
2021/05/06 11:59:07;;;;;;;1.47;1.27;;;;;;;12.07;52.40;95831.75;5037821;28;21007;-67
2021/05/06 12:01:33;;;;;;;1.80;1.10;;;;;;;12.18;52.61;95819.06;5037252;28;20492;-68
2021/05/06 12:03:59;;;;;;;1.20;1.10;;;;;;;12.43;51.76;95824.59;5033461;28;20430;-67
2021/05/06 12:06:35;;;;;;;4.07;1.70;;;;;;;12.47;51.50;95819.78;5033547;28;20700;-68
2021/05/06 12:09:04;;;;;;;4.87;1.40;;;;;;;12.52;51.24;95814.72;5032746;28;20687;-68
2021/05/06 12:11:39;;;;;;;5.57;1.37;;;;;;;12.40;51.42;95812.69;5033974;28;20458;-67
2021/05/06 12:14:06;;;;;;;3.47;2.00;;;;;;;12.24;52.06;95808.59;5033634;28;20465;-68
2021/05/06 12:16:34;;;;;;;1.53;1.23;;;;;;;12.23;52.12;95803.53;5015225;28;20427;-67
2021/05/06 12:19:10;;;;;;;5.10;1.60;;;;;;;12.40;51.33;95788.25;5032432;28;20561;-67
2021/05/06 12:21:48;;;;;;;1.83;1.70;;;;;;;12.41;51.64;95782.78;5044953;28;20438;-68
2021/05/06 12:24:38;;;;;;;1.60;1.50;;;;;;;12.34;51.88;95778.50;5032262;28;21134;-68
2021/05/06 12:27:24;;;;;;;1.57;1.40;;;;;;;12.92;51.10;95770.09;5025604;28;20509;-68
2021/05/06 12:29:57;;;;;;;2.10;1.60;;;;;;;12.69;51.32;95770.50;5030120;28;20439;-68
2021/05/06 12:32:24;;;;;;;3.17;1.40;;;;;;;12.46;53.48;95771.66;5032914;28;20426;-68
2021/05/06 12:34:50;;;;;;;3.87;1.40;;;;;;;12.53;54.16;95759.38;5032657;28;20450;-68
2021/05/06 12:37:16;;;;;;;1.60;1.50;;;;;;;11.43;57.07;95762.75;5048193;28;20423;-68
2021/05/06 12:39:43;;;;;;;1.57;1.47;;;;;;;11.89;56.51;95760.56;5030573;28;20459;-68
2021/05/06 12:42:09;;;;;;;3.30;1.73;;;;;;;11.60;57.57;95758.00;5032496;28;20457;-68
2021/05/06 12:44:46;;;;;;;3.50;1.60;;;;;;;11.80;57.40;95747.59;5034025;28;20435;-67
2021/05/06 12:47:14;;;;;;;2.03;1.93;;;;;;;11.62;58.25;95747.31;5035794;28;20430;-69
2021/05/06 12:49:40;;;;;;;3.97;2.50;;;;;;;11.43;59.31;95747.03;5033155;28;20850;-69
2021/05/06 12:52:05;;;;;;;3.53;2.47;;;;;;;11.33;59.76;95742.13;5038948;28;20431;-68
2021/05/06 12:54:35;;;;;;;4.57;2.10;;;;;;;11.74;60.04;95739.72;5048070;28;20282;-68
2021/05/06 12:57:16;;;;;;;6.50;1.70;;;;;;;12.07;59.71;95736.41;5035467;28;20425;-66
2021/05/06 12:59:51;;;;;;;2.40;2.20;;;;;;;12.28;59.30;95738.91;5032153;28;20458;-69
2021/05/06 13:02:17;;;;;;;2.70;2.03;;;;;;;12.34;58.56;95733.84;5034041;28;20779;-68
2021/05/06 13:04:43;;;;;;;3.40;2.33;;;;;;;12.23;59.43;95736.06;5032557;28;20818;-67
2021/05/06 13:07:09;;;;;;;7.33;2.37;;;;;;;12.44;59.41;95747.41;5034097;28;20434;-68
2021/05/06 13:09:40;;;;;;;3.70;2.23;;;;;;;12.47;59.79;95739.13;5032275;28;20337;-68
2021/05/06 13:12:11;;;;;;;4.40;2.50;;;;;;;11.67;61.88;95744.94;5032233;28;20188;-68
2021/05/06 13:14:47;;;;;;;7.00;2.27;;;;;;;12.10;61.09;95736.81;5030606;28;20453;-67
2021/05/06 13:17:25;;;;;;;2.20;1.60;;;;;;;11.96;60.85;95745.66;5033677;28;20426;-67
2021/05/06 13:19:52;;;;;;;2.50;2.30;;;;;;;12.12;60.57;95737.44;5033541;28;20501;-67
2021/05/06 13:22:20;;;;;;;3.00;2.03;;;;;;;12.23;60.56;95732.59;5029903;28;20438;-68
2021/05/06 13:24:48;;;;;;;3.20;2.70;;;;;;;12.35;60.88;95728.38;5030628;28;20443;-68
2021/05/06 13:27:21;;;;;;;3.77;3.30;;;;;;;12.21;61.48;95722.31;5031054;28;20422;-69
2021/05/06 13:29:55;;;;;;;4.23;2.60;;;;;;;11.91;62.89;95719.19;5030998;28;20517;-68
2021/05/06 13:32:35;;;;;;;4.90;2.70;;;;;;;12.18;62.24;95720.06;5029356;28;20450;-68
2021/05/06 13:35:01;;;;;;;4.30;2.97;;;;;;;12.21;62.47;95709.19;5033986;28;20453;-69
2021/05/06 13:37:43;;;;;;;5.63;2.53;;;;;;;12.38;62.23;95699.09;5034879;28;20771;-68
2021/05/06 13:40:10;;;;;;;3.80;2.70;;;;;;;12.35;62.07;95689.00;5031772;28;20214;-69
2021/05/06 13:42:37;;;;;;;2.77;2.53;;;;;;;12.46;62.22;95684.97;5030747;28;20480;-70
2021/05/06 13:45:04;;;;;;;3.70;2.70;;;;;;;12.39;62.47;95682.34;5033276;28;20449;-68
2021/05/06 13:47:30;;;;;;;5.03;3.20;;;;;;;12.17;63.46;95670.41;5033766;28;20426;-69
2021/05/06 13:49:55;;;;;;;3.67;2.70;;;;;;;12.22;63.24;95653.03;5031926;28;20449;-68
2021/05/06 13:52:24;;;;;;;3.87;2.90;;;;;;;12.14;63.14;95656.66;5039001;28;20205;-69
2021/05/06 13:54:51;;;;;;;2.97;2.67;;;;;;;12.00;63.57;95649.75;5047153;28;20215;-67
2021/05/06 13:57:17;;;;;;;4.47;2.80;;;;;;;12.18;63.34;95643.91;5040050;28;20502;-68
2021/05/06 13:59:43;;;;;;;3.90;3.10;;;;;;;12.16;64.01;95645.13;5033085;28;20493;-69
2021/05/06 14:02:09;;;;;;;4.30;3.00;;;;;;;12.35;63.74;95643.53;5032258;28;20700;-68
2021/05/06 14:04:34;;;;;;;3.87;2.80;;;;;;;12.07;64.56;95637.47;5031986;28;20493;-69
2021/05/06 14:07:00;;;;;;;6.07;4.13;;;;;;;12.10;64.33;95634.41;5031611;28;20285;-70
2021/05/06 14:09:26;;;;;;;2.87;2.67;;;;;;;12.13;64.35;95620.91;5031828;28;20267;-68
2021/05/06 14:11:51;;;;;;;4.20;2.53;;;;;;;12.09;64.04;95614.44;5046901;28;20187;-66
2021/05/06 14:14:17;;;;;;;2.70;2.30;;;;;;;11.83;65.15;95618.63;5031561;28;20186;-67
2021/05/06 14:16:43;;;;;;;3.67;2.60;;;;;;;11.86;65.13;95601.66;5026441;28;20188;-68
2021/05/06 14:19:12;;;;;;;2.30;1.93;;;;;;;12.02;63.53;95608.38;5046803;28;20975;-69
2021/05/06 14:21:39;;;;;;;5.97;2.40;;;;;;;12.22;63.45;95610.22;5031054;28;20445;-67
2021/05/06 14:24:06;;;;;;;2.67;1.73;;;;;;;12.01;63.35;95608.56;5031028;28;20902;-68
2021/05/06 14:26:32;;;;;;;2.43;2.23;;;;;;;11.64;65.31;95601.81;5031693;28;20427;-68
2021/05/06 14:28:58;;;;;;;1.90;1.70;;;;;;;11.73;65.23;95601.63;5031322;28;21057;-69
2021/05/06 14:31:24;;;;;;;2.80;2.33;;;;;;;11.68;66.02;95591.72;5031559;28;20438;-68
2021/05/06 14:33:50;;;;;;;2.60;2.10;;;;;;;11.80;65.68;95592.75;5031484;28;20195;-68
2021/05/06 14:36:15;;;;;;;2.43;2.23;;;;;;;11.54;65.71;95588.25;5032791;28;20294;-66
2021/05/06 14:38:41;;;;;;;5.80;2.07;;;;;;;11.42;65.61;95576.72;5035645;28;20461;-68
2021/05/06 14:41:08;;;;;;;2.93;2.50;;;;;;;11.63;66.19;95578.38;5035723;28;20227;-68
2021/05/06 14:43:34;;;;;;;3.93;2.23;;;;;;;11.73;66.06;95578.81;5035075;28;20831;-69
2021/05/06 14:46:00;;;;;;;2.03;1.83;;;;;;;11.62;66.26;95569.72;5033746;28;20469;-67
2021/05/06 14:48:26;;;;;;;2.37;2.17;;;;;;;11.35;67.07;95572.25;5035316;28;20184;-69
2021/05/06 14:50:52;;;;;;;2.83;2.23;;;;;;;11.33;66.82;95565.59;5034635;28;20909;-67
2021/05/06 14:53:18;;;;;;;2.57;1.80;;;;;;;11.57;66.46;95564.25;5035395;28;20418;-69
2021/05/06 14:55:44;;;;;;;2.87;1.80;;;;;;;11.44;66.29;95551.91;5036355;28;20434;-66
2021/05/06 14:58:10;;;;;;;2.30;1.73;;;;;;;11.26;66.52;95546.41;5035848;28;20214;-67